Time;durP1;ratioP1;P1;durP2;ratioP2;P2;SDS_P1;SDS_P2;PMS_P1;PMS_P2;Temp;Humidity;BMP_temperature;BMP_pressure;BME280_temperature;BME280_humidity;BME280_pressure;Samples;Min_cycle;Max_cycle;Signal;HPM_P1;HPM_P2
2023/01/28 00:00:32;;;;;;;0.30;0.30;;;0.60;92.50;;;;;;5054600;28;20190;-67
2023/01/28 00:02:57;;;;;;;1.00;0.90;;;0.70;92.60;;;;;;5055226;28;20409;-68
2023/01/28 00:05:23;;;;;;;0.50;0.50;;;0.70;92.30;;;;;;5055514;28;20175;-68
2023/01/28 00:07:50;;;;;;;1.13;1.13;;;0.80;92.40;;;;;;5055492;28;20558;-67
2023/01/28 00:10:15;;;;;;;0.30;0.30;;;0.90;91.90;;;;;;5055252;28;20453;-68
2023/01/28 00:12:41;;;;;;;1.60;1.53;;;0.90;91.60;;;;;;5053948;28;20697;-68
2023/01/28 00:15:07;;;;;;;1.07;1.07;;;1.00;91.60;;;;;;5055239;28;20176;-68
2023/01/28 00:17:32;;;;;;;0.30;0.30;;;1.00;91.50;;;;;;5055469;28;20179;-68
2023/01/28 00:19:58;;;;;;;0.80;0.80;;;0.80;91.40;;;;;;5055045;28;20485;-68
2023/01/28 00:22:24;;;;;;;0.50;0.50;;;0.80;91.80;;;;;;5055156;28;20240;-68
2023/01/28 00:24:49;;;;;;;0.60;0.60;;;0.80;91.80;;;;;;5055367;28;20171;-68
2023/01/28 00:27:15;;;;;;;0.87;0.87;;;0.80;92.00;;;;;;5055312;28;20168;-68
2023/01/28 00:29:40;;;;;;;0.30;0.30;;;0.80;92.10;;;;;;5055125;28;20240;-68
2023/01/28 00:32:06;;;;;;;1.23;1.23;;;0.70;91.90;;;;;;5055085;28;20167;-68
2023/01/28 00:34:32;;;;;;;0.30;0.30;;;0.80;91.90;;;;;;5055021;28;20220;-68
2023/01/28 00:36:58;;;;;;;0.37;0.37;;;0.80;91.80;;;;;;5054967;28;20215;-67
2023/01/28 00:39:24;;;;;;;1.27;1.27;;;0.80;92.00;;;;;;5054929;28;20194;-68
2023/01/28 00:41:51;;;;;;;0.52;0.52;;;0.90;92.00;;;;;;5054723;28;20179;-68
2023/01/28 00:44:17;;;;;;;0.40;0.40;;;0.90;92.10;;;;;;5053646;28;20225;-68
2023/01/28 00:46:42;;;;;;;0.30;0.30;;;0.90;92.20;;;;;;5053435;28;20637;-68
2023/01/28 00:49:08;;;;;;;0.30;0.30;;;0.70;92.00;;;;;;5054535;28;20244;-68
2023/01/28 00:51:34;;;;;;;0.80;0.80;;;0.70;92.20;;;;;;5054635;28;20176;-67
2023/01/28 00:54:00;;;;;;;0.80;0.80;;;0.70;92.40;;;;;;5054507;28;20165;-67
2023/01/28 00:56:25;;;;;;;0.40;0.40;;;0.90;92.20;;;;;;5054721;28;20188;-68
2023/01/28 00:58:51;;;;;;;0.40;0.40;;;0.70;93.10;;;;;;5054549;28;20495;-67
2023/01/28 01:01:25;;;;;;;0.70;0.70;;;0.90;92.10;;;;;;5054711;28;20663;-68
2023/01/28 01:04:01;;;;;;;0.30;0.30;;;0.90;92.00;;;;;;5054205;28;20830;-68
2023/01/28 01:06:29;;;;;;;3.85;1.73;;;0.80;92.10;;;;;;5054534;28;20175;-68
2023/01/28 01:08:54;;;;;;;0.40;0.40;;;0.70;95.90;;;;;;5054372;28;20179;-68
2023/01/28 01:11:20;;;;;;;0.37;0.37;;;0.70;92.10;;;;;;5054193;28;20652;-68
2023/01/28 01:13:51;;;;;;;0.40;0.40;;;0.70;92.40;;;;;;5053707;28;20271;-68
2023/01/28 01:16:16;;;;;;;0.70;0.70;;;0.80;92.40;;;;;;5054124;28;20171;-68
2023/01/28 01:18:42;;;;;;;0.30;0.30;;;0.80;92.30;;;;;;5053951;28;20198;-68
2023/01/28 01:21:10;;;;;;;0.30;0.30;;;0.70;92.00;;;;;;5054180;28;20636;-68
2023/01/28 01:23:36;;;;;;;0.55;0.55;;;0.50;92.20;;;;;;5054169;28;20218;-68
2023/01/28 01:26:03;;;;;;;0.50;0.50;;;0.50;92.50;;;;;;5054173;28;20198;-68
2023/01/28 01:28:28;;;;;;;3.33;0.77;;;0.50;92.70;;;;;;5053931;28;20167;-68
2023/01/28 01:31:12;;;;;;;0.40;0.40;;;0.50;92.70;;;;;;5053808;28;20745;-68
2023/01/28 01:33:38;;;;;;;0.40;0.40;;;0.50;92.60;;;;;;5052605;28;20179;-68
2023/01/28 01:36:04;;;;;;;0.30;0.30;;;0.40;92.70;;;;;;5054040;28;20171;-67
2023/01/28 01:38:30;;;;;;;1.75;1.65;;;0.40;92.80;;;;;;5053920;28;20249;-68
2023/01/28 01:40:59;;;;;;;0.67;0.67;;;0.50;93.30;;;;;;5053701;28;20703;-68
2023/01/28 01:43:45;;;;;;;0.60;0.60;;;0.60;92.90;;;;;;5052333;28;20182;-68
2023/01/28 01:46:11;;;;;;;0.40;0.40;;;0.50;92.80;;;;;;5053875;28;20601;-68
2023/01/28 01:48:37;;;;;;;0.75;0.75;;;0.60;92.80;;;;;;5053879;28;20182;-68
2023/01/28 01:51:10;;;;;;;0.30;0.30;;;0.70;92.80;;;;;;5053590;28;20202;-67
2023/01/28 01:53:43;;;;;;;0.60;0.60;;;0.70;92.80;;;;;;5053474;28;20163;-68
2023/01/28 01:56:13;;;;;;;1.85;0.80;;;0.80;92.60;;;;;;5052321;28;20171;-68
2023/01/28 01:58:41;;;;;;;0.80;0.80;;;0.80;92.40;;;;;;5053772;28;20175;-68
2023/01/28 02:01:07;;;;;;;0.50;0.50;;;0.80;92.50;;;;;;5052051;28;20198;-68
2023/01/28 02:03:42;;;;;;;0.63;0.63;;;0.80;92.40;;;;;;5053257;28;20254;-68
2023/01/28 02:06:08;;;;;;;1.25;0.75;;;0.70;92.40;;;;;;5053461;28;20262;-67
2023/01/28 02:08:34;;;;;;;1.77;0.82;;;0.80;92.50;;;;;;5053381;28;20168;-68
2023/01/28 02:11:07;;;;;;;0.40;0.40;;;0.80;92.50;;;;;;5053154;28;20203;-68
2023/01/28 02:13:41;;;;;;;1.50;1.42;;;0.70;92.40;;;;;;5052057;28;20822;-68
2023/01/28 02:16:07;;;;;;;0.43;0.43;;;0.60;92.10;;;;;;5053409;28;20636;-68
2023/01/28 02:18:34;;;;;;;0.40;0.40;;;0.60;92.20;;;;;;5053076;28;20190;-68
2023/01/28 02:21:25;;;;;;;0.40;0.40;;;0.60;92.30;;;;;;5053130;28;20252;-68
2023/01/28 02:24:09;;;;;;;0.30;0.30;;;0.60;92.50;;;;;;5053395;28;20171;-68
2023/01/28 02:27:22;;;;;;;0.40;0.40;;;0.50;92.70;;;;;;5058031;28;20187;-68
2023/01/28 02:29:59;;;;;;;0.30;0.30;;;0.40;92.50;;;;;;5037830;28;20230;-68
2023/01/28 02:32:28;;;;;;;0.30;0.30;;;0.30;92.70;;;;;;5057280;28;20171;-68
2023/01/28 02:35:11;;;;;;;0.77;0.77;;;0.30;93.10;;;;;;5057325;28;20681;-68
2023/01/28 02:37:46;;;;;;;0.40;0.40;;;0.20;93.10;;;;;;5057351;28;20175;-68
2023/01/28 02:40:23;;;;;;;0.40;0.40;;;0.30;93.00;;;;;;5057219;28;20240;-68
2023/01/28 02:42:49;;;;;;;0.30;0.30;;;;;;;;;;5056923;28;20168;-68
2023/01/28 02:48:16;;;;;;;0.40;0.40;;;0.30;92.90;;;;;;5057426;28;20208;-67
2023/01/28 02:51:21;;;;;;;0.30;0.30;;;0.30;92.60;;;;;;5055429;28;20295;-67
2023/01/28 02:53:56;;;;;;;1.00;1.00;;;0.40;92.70;;;;;;5056679;28;20559;-68
2023/01/28 02:56:30;;;;;;;0.30;0.30;;;0.30;92.80;;;;;;5057010;28;20174;-68
2023/01/28 02:59:30;;;;;;;2.25;2.15;;;0.30;99.20;;;;;;5056915;28;20169;-68
2023/01/28 03:02:11;;;;;;;0.40;0.40;;;0.30;93.30;;;;;;5056467;28;20231;-68
2023/01/28 03:04:46;;;;;;;2.22;2.17;;;0.20;93.00;;;;;;5056738;28;20172;-68
2023/01/28 03:07:15;;;;;;;0.30;0.30;;;0.10;93.10;;;;;;5056603;28;20179;-68
2023/01/28 03:09:44;;;;;;;0.40;0.40;;;0.00;93.40;;;;;;5056393;28;20202;-68
2023/01/28 03:38:51;;;;;;;0.40;0.40;;;-0.30;99.90;;;;;;5056482;28;20216;-68
2023/01/28 03:41:26;;;;;;;0.57;0.57;;;-0.30;94.10;;;;;;5055922;28;20653;-68
2023/01/28 03:43:52;;;;;;;0.40;0.40;;;-0.30;94.50;;;;;;5055778;28;20400;-68
2023/01/28 03:46:18;;;;;;;0.30;0.30;;;-0.10;94.60;;;;;;5056067;28;20186;-68
2023/01/28 03:48:45;;;;;;;0.30;0.30;;;-0.60;94.80;;;;;;5055824;28;20204;-68
2023/01/28 03:51:11;;;;;;;0.40;0.40;;;-0.20;94.80;;;;;;5055864;28;20206;-68
2023/01/28 03:53:39;;;;;;;0.30;0.30;;;-0.10;95.10;;;;;;5055550;28;20170;-67
2023/01/28 03:56:05;;;;;;;1.85;1.55;;;-0.30;95.00;;;;;;5055838;28;20620;-67
2023/01/28 03:58:51;;;;;;;0.40;0.40;;;-0.40;95.40;;;;;;5055841;28;20179;-67
2023/01/28 04:01:17;;;;;;;0.52;0.52;;;-0.20;95.70;;;;;;5055739;28;20390;-68
2023/01/28 04:03:43;;;;;;;0.30;0.30;;;-0.10;95.60;;;;;;5055484;28;20168;-68
2023/01/28 04:06:09;;;;;;;0.60;0.60;;;0.00;95.40;;;;;;5055686;28;20178;-68
2023/01/28 04:08:35;;;;;;;0.50;0.50;;;0.10;95.40;;;;;;5055456;28;20261;-68
2023/01/28 04:11:14;;;;;;;6.93;1.83;;;0.20;95.30;;;;;;5055261;28;20621;-68
2023/01/28 04:13:40;;;;;;;0.30;0.30;;;0.30;95.00;;;;;;5055288;28;20167;-68
2023/01/28 04:16:07;;;;;;;0.40;0.40;;;0.40;94.40;;;;;;5055441;28;20182;-67
2023/01/28 04:18:33;;;;;;;0.40;0.40;;;0.50;94.20;;;;;;5055258;28;20205;-68
2023/01/28 04:20:58;;;;;;;0.40;0.40;;;0.10;93.50;;;;;;5055305;28;20188;-68
2023/01/28 04:23:24;;;;;;;0.63;0.63;;;-0.10;94.10;;;;;;5055005;28;20639;-68
2023/01/28 04:25:50;;;;;;;0.30;0.30;;;-0.10;94.50;;;;;;5055183;28;20178;-68
2023/01/28 04:28:16;;;;;;;3.05;2.25;;;0.00;94.50;;;;;;5055288;28;20518;-68
2023/01/28 04:30:42;;;;;;;0.40;0.30;;;-0.10;94.30;;;;;;5054858;28;20206;-68
2023/01/28 04:33:07;;;;;;;1.80;0.97;;;-0.30;94.50;;;;;;5054806;28;20221;-68
2023/01/28 04:35:33;;;;;;;0.30;0.30;;;-0.40;94.70;;;;;;5055124;28;20167;-68
2023/01/28 04:37:59;;;;;;;1.77;0.93;;;-0.20;95.10;;;;;;5054843;28;20412;-68
2023/01/28 04:40:24;;;;;;;0.50;0.50;;;-0.10;94.90;;;;;;5054807;28;20190;-68
2023/01/28 04:42:54;;;;;;;3.07;1.87;;;0.00;94.70;;;;;;5054742;28;20248;-68
2023/01/28 04:45:20;;;;;;;0.65;0.65;;;0.00;94.10;;;;;;5054859;28;20171;-68
2023/01/28 04:47:46;;;;;;;0.30;0.30;;;-0.20;94.40;;;;;;5052984;28;20172;-68
2023/01/28 04:50:11;;;;;;;0.50;0.50;;;-0.30;95.00;;;;;;5054566;28;20244;-67
2023/01/28 04:52:37;;;;;;;0.70;0.70;;;-0.10;95.20;;;;;;5054627;28;20661;-68
2023/01/28 04:55:03;;;;;;;0.40;0.40;;;0.00;94.60;;;;;;5054835;28;20177;-68
2023/01/28 04:57:28;;;;;;;1.15;1.15;;;0.00;94.50;;;;;;5054795;28;20198;-68
2023/01/28 04:59:54;;;;;;;0.30;0.30;;;0.10;94.50;;;;;;5054583;28;20222;-68
2023/01/28 05:02:20;;;;;;;0.50;0.50;;;0.10;94.20;;;;;;5054294;28;20176;-68
2023/01/28 05:04:45;;;;;;;1.07;0.77;;;0.10;94.10;;;;;;5054509;28;20170;-68
2023/01/28 05:07:11;;;;;;;0.30;0.30;;;0.00;93.90;;;;;;5054581;28;20564;-67
2023/01/28 05:09:37;;;;;;;0.40;0.40;;;-0.10;94.20;;;;;;5054343;28;20199;-68
2023/01/28 05:12:02;;;;;;;0.40;0.40;;;-0.10;94.00;;;;;;5054140;28;20178;-68
2023/01/28 05:14:28;;;;;;;2.73;1.33;;;-0.10;94.20;;;;;;5054262;28;20451;-68
2023/01/28 05:16:54;;;;;;;0.60;0.60;;;-0.10;94.40;;;;;;5054337;28;20401;-68
2023/01/28 05:19:19;;;;;;;0.30;0.30;;;0.00;94.40;;;;;;5054004;28;20210;-68
2023/01/28 05:21:45;;;;;;;0.40;0.40;;;-0.20;94.50;;;;;;5053800;28;20174;-68
2023/01/28 05:24:11;;;;;;;0.80;0.80;;;-0.10;94.60;;;;;;5054118;28;20212;-68
2023/01/28 05:26:37;;;;;;;1.88;1.77;;;0.10;94.30;;;;;;5054121;28;20170;-68
2023/01/28 05:29:03;;;;;;;0.57;0.50;;;0.10;99.90;;;;;;5053968;28;20171;-68
2023/01/28 05:31:29;;;;;;;0.60;0.60;;;0.10;93.90;;;;;;5053899;28;20178;-68
2023/01/28 05:33:54;;;;;;;0.30;0.30;;;0.20;94.20;;;;;;5053913;28;20529;-68
2023/01/28 05:36:20;;;;;;;0.40;0.40;;;0.10;93.80;;;;;;5054304;28;20246;-68
2023/01/28 05:38:46;;;;;;;0.40;0.40;;;-0.40;97.10;;;;;;5053930;28;20632;-67
2023/01/28 05:41:11;;;;;;;0.30;0.30;;;-0.30;94.10;;;;;;5054043;28;20408;-67
2023/01/28 05:43:37;;;;;;;0.30;0.30;;;-0.40;94.50;;;;;;5053681;28;20174;-67
2023/01/28 05:46:03;;;;;;;0.40;0.40;;;-0.30;94.80;;;;;;5053868;28;20236;-68
2023/01/28 05:48:29;;;;;;;1.57;1.57;;;-0.40;94.80;;;;;;5053830;28;20217;-67
2023/01/28 05:50:54;;;;;;;1.53;1.43;;;-0.30;94.90;;;;;;5053546;28;20456;-68
2023/01/28 05:53:20;;;;;;;0.57;0.50;;;-0.40;94.50;;;;;;5053441;28;20166;-68
2023/01/28 05:55:50;;;;;;;0.40;0.40;;;-0.20;94.70;;;;;;5053649;28;20192;-68
2023/01/28 05:58:16;;;;;;;0.60;0.60;;;-0.10;94.90;;;;;;5053158;28;20442;-67
2023/01/28 06:00:42;;;;;;;0.40;0.40;;;0.00;94.90;;;;;;5053145;28;20201;-68
2023/01/28 06:03:08;;;;;;;0.77;0.77;;;-0.10;94.90;;;;;;5053233;28;20182;-68
2023/01/28 06:05:33;;;;;;;0.67;0.67;;;-0.30;95.30;;;;;;5052760;28;20532;-68
2023/01/28 06:07:59;;;;;;;0.50;0.50;;;-0.10;95.30;;;;;;5051914;28;20170;-67
2023/01/28 06:10:24;;;;;;;1.10;1.10;;;0.00;95.00;;;;;;5053093;28;20201;-67
2023/01/28 06:12:50;;;;;;;1.83;1.67;;;0.10;94.90;;;;;;5053144;28;20181;-68
2023/01/28 06:15:16;;;;;;;1.80;1.80;;;0.20;95.20;;;;;;5053562;28;20166;-68
2023/01/28 06:17:41;;;;;;;1.47;1.37;;;0.20;94.70;;;;;;5053452;28;20212;-68
2023/01/28 06:20:08;;;;;;;0.50;0.50;;;0.20;94.60;;;;;;5053135;28;20212;-68
2023/01/28 06:22:33;;;;;;;1.35;1.35;;;0.10;94.50;;;;;;5053144;28;20174;-67
2023/01/28 06:24:59;;;;;;;4.50;3.20;;;0.20;94.70;;;;;;5053348;28;20655;-67
2023/01/28 06:27:25;;;;;;;0.90;0.77;;;0.30;94.80;;;;;;5053160;28;20174;-68
2023/01/28 06:29:50;;;;;;;0.40;0.40;;;0.30;94.50;;;;;;5053241;28;20686;-67
2023/01/28 06:32:16;;;;;;;0.73;0.73;;;0.20;94.20;;;;;;5052929;28;20578;-68
2023/01/28 06:34:41;;;;;;;0.93;0.70;;;-0.20;94.50;;;;;;5053349;28;20175;-68
2023/01/28 06:37:07;;;;;;;0.30;0.30;;;-0.20;95.00;;;;;;5053099;28;20592;-68
2023/01/28 06:39:33;;;;;;;0.40;0.40;;;-0.10;95.30;;;;;;5053074;28;20228;-67
2023/01/28 06:41:59;;;;;;;0.30;0.30;;;0.10;95.10;;;;;;5053050;28;20252;-68
2023/01/28 06:44:24;;;;;;;0.40;0.40;;;0.00;94.70;;;;;;5051700;28;20193;-67
2023/01/28 06:46:50;;;;;;;0.80;0.80;;;0.00;94.80;;;;;;5053211;28;20405;-67
2023/01/28 06:49:16;;;;;;;0.30;0.30;;;-0.50;95.30;;;;;;5052752;28;20218;-67
2023/01/28 06:51:42;;;;;;;0.60;0.60;;;-0.60;96.20;;;;;;5052831;28;20248;-67
2023/01/28 06:54:09;;;;;;;0.40;0.40;;;-0.40;96.30;;;;;;5051817;28;20224;-67
2023/01/28 06:56:35;;;;;;;0.40;0.40;;;-0.40;95.80;;;;;;5053474;28;20185;-69
2023/01/28 06:59:00;;;;;;;2.33;1.77;;;-0.20;99.90;;;;;;5053451;28;20170;-67
2023/01/28 07:01:26;;;;;;;1.10;1.10;;;-0.10;95.70;;;;;;5053726;28;20198;-68
2023/01/28 07:03:51;;;;;;;0.40;0.40;;;0.10;96.00;;;;;;5052646;28;20696;-68
2023/01/28 07:06:17;;;;;;;0.50;0.50;;;-0.10;95.70;;;;;;5052885;28;20205;-68
2023/01/28 07:08:43;;;;;;;0.90;0.90;;;0.00;96.00;;;;;;5053225;28;20174;-68
2023/01/28 07:11:08;;;;;;;0.70;0.70;;;0.00;95.80;;;;;;5053563;28;20285;-68
2023/01/28 07:13:34;;;;;;;0.70;0.70;;;-0.10;95.60;;;;;;5056659;28;20638;-68
2023/01/28 07:16:00;;;;;;;0.40;0.40;;;0.00;95.70;;;;;;5056657;28;20167;-69
2023/01/28 07:18:26;;;;;;;0.50;0.47;;;0.00;95.50;;;;;;5056334;28;20189;-68
2023/01/28 07:20:52;;;;;;;0.40;0.40;;;0.00;95.50;;;;;;5056950;28;20451;-69
2023/01/28 07:23:17;;;;;;;0.30;0.30;;;0.00;95.50;;;;;;5056183;28;20408;-68
2023/01/28 07:25:43;;;;;;;0.70;0.70;;;0.00;95.90;;;;;;5056272;28;20186;-68
2023/01/28 07:28:09;;;;;;;1.83;1.73;;;0.00;95.90;;;;;;5056694;28;20624;-67
2023/01/28 07:30:34;;;;;;;1.02;1.02;;;0.10;95.80;;;;;;5056090;28;20230;-68
2023/01/28 07:33:00;;;;;;;0.30;0.30;;;0.20;95.80;;;;;;5056103;28;20255;-68
2023/01/28 07:35:26;;;;;;;0.30;0.30;;;0.30;95.20;;;;;;5056451;28;20632;-68
2023/01/28 07:37:53;;;;;;;1.67;1.57;;;0.20;94.70;;;;;;5056413;28;20292;-68
2023/01/28 07:40:19;;;;;;;1.17;1.17;;;0.30;94.90;;;;;;5056464;28;20191;-68
2023/01/28 07:42:45;;;;;;;0.32;0.32;;;0.40;94.70;;;;;;5056132;28;20178;-70
2023/01/28 07:45:11;;;;;;;0.40;0.40;;;0.20;94.40;;;;;;5056532;28;20225;-69
2023/01/28 07:47:36;;;;;;;0.30;0.30;;;0.10;94.60;;;;;;5056018;28;20224;-70
2023/01/28 07:50:02;;;;;;;0.40;0.40;;;0.10;94.70;;;;;;5055722;28;20567;-69
2023/01/28 07:52:28;;;;;;;3.33;1.02;;;0.20;94.50;;;;;;5055762;28;20574;-70
2023/01/28 07:54:54;;;;;;;0.40;0.40;;;0.30;94.20;;;;;;5054729;28;20236;-68
2023/01/28 07:57:22;;;;;;;0.55;0.55;;;0.30;93.90;;;;;;5055846;28;20523;-69
2023/01/28 07:59:49;;;;;;;0.40;0.40;;;0.20;93.90;;;;;;5055037;28;20199;-68
2023/01/28 08:02:15;;;;;;;0.30;0.30;;;-0.10;93.80;;;;;;5054108;28;20182;-68
2023/01/28 08:04:41;;;;;;;0.40;0.40;;;-0.30;94.40;;;;;;5055512;28;20174;-68
2023/01/28 08:07:07;;;;;;;0.30;0.30;;;-0.20;94.90;;;;;;5055883;28;20174;-69
2023/01/28 08:09:33;;;;;;;1.87;1.77;;;-0.10;95.10;;;;;;5055703;28;20228;-69
2023/01/28 08:12:00;;;;;;;0.40;0.40;;;0.10;95.20;;;;;;5054859;28;20167;-68
2023/01/28 08:14:26;;;;;;;0.30;0.30;;;0.00;94.40;;;;;;5054489;28;20175;-68
2023/01/28 08:16:52;;;;;;;0.37;0.37;;;0.10;94.40;;;;;;5055408;28;20163;-69
2023/01/28 08:19:20;;;;;;;0.40;0.40;;;0.30;94.70;;;;;;5055256;28;20484;-71
2023/01/28 08:21:46;;;;;;;0.40;0.40;;;0.30;94.30;;;;;;5054515;28;20167;-69
2023/01/28 08:24:12;;;;;;;0.63;0.63;;;0.10;94.00;;;;;;5055613;28;20172;-69
2023/01/28 08:26:38;;;;;;;0.33;0.33;;;0.10;94.30;;;;;;5055825;28;20216;-69
2023/01/28 08:29:05;;;;;;;0.85;0.60;;;-0.40;99.90;;;;;;5055522;28;20221;-69
2023/01/28 08:31:31;;;;;;;0.40;0.40;;;-0.10;94.70;;;;;;5055194;28;20211;-69
2023/01/28 08:33:58;;;;;;;0.40;0.40;;;-0.30;94.90;;;;;;5055215;28;20205;-70
2023/01/28 08:36:24;;;;;;;0.40;0.40;;;-0.40;95.50;;;;;;5055575;28;20162;-69
2023/01/28 08:38:53;;;;;;;0.30;0.30;;;-0.50;99.80;;;;;;5052461;28;20185;-69
2023/01/28 08:41:22;;;;;;;0.38;0.38;;;-0.50;95.80;;;;;;5052654;28;20179;-69
2023/01/28 08:43:48;;;;;;;0.70;0.70;;;-0.30;95.80;;;;;;5053491;28;20232;-69
2023/01/28 08:46:15;;;;;;;0.40;0.40;;;0.00;95.80;;;;;;5053413;28;20175;-68
2023/01/28 08:48:40;;;;;;;0.30;0.30;;;0.10;95.40;;;;;;5054682;28;20195;-70
2023/01/28 08:51:06;;;;;;;0.30;0.30;;;0.20;94.90;;;;;;5055042;28;20292;-68
2023/01/28 08:53:32;;;;;;;0.30;0.30;;;0.10;94.80;;;;;;5054615;28;20172;-70
2023/01/28 08:55:57;;;;;;;0.30;0.30;;;-0.20;95.10;;;;;;5055180;28;20997;-70
2023/01/28 08:58:23;;;;;;;0.40;0.40;;;-0.20;95.70;;;;;;5055119;28;20636;-70
2023/01/28 09:00:49;;;;;;;1.47;1.37;;;-0.10;95.40;;;;;;5054772;28;20663;-70
2023/01/28 09:03:16;;;;;;;0.40;0.40;;;-0.20;95.20;;;;;;5054653;28;20216;-70
2023/01/28 09:05:42;;;;;;;0.50;0.50;;;-0.20;95.10;;;;;;5054774;28;20179;-70
2023/01/28 09:08:11;;;;;;;0.30;0.30;;;-0.30;95.40;;;;;;5054906;28;20256;-69
2023/01/28 09:10:37;;;;;;;0.30;0.30;;;-0.20;95.40;;;;;;5054266;28;20461;-71
2023/01/28 09:13:08;;;;;;;0.40;0.40;;;0.10;95.60;;;;;;5054150;28;20187;-68
2023/01/28 09:15:34;;;;;;;0.30;0.30;;;0.50;95.40;;;;;;5054447;28;20678;-68
2023/01/28 09:18:00;;;;;;;2.15;1.67;;;0.80;94.70;;;;;;5054462;28;20176;-69
2023/01/28 09:20:27;;;;;;;0.40;0.40;;;1.10;93.80;;;;;;5052710;28;20210;-68
2023/01/28 09:22:53;;;;;;;0.30;0.30;;;1.30;93.00;;;;;;5053805;28;20254;-68
2023/01/28 09:25:19;;;;;;;1.13;1.13;;;1.20;92.60;;;;;;5054495;28;20172;-68
2023/01/28 09:27:44;;;;;;;0.40;0.40;;;1.10;92.70;;;;;;5053362;28;20199;-69
2023/01/28 09:30:12;;;;;;;0.30;0.30;;;1.20;92.70;;;;;;5052735;28;20209;-69
2023/01/28 09:32:38;;;;;;;0.50;0.50;;;1.30;92.10;;;;;;5052805;28;20537;-68
2023/01/28 09:35:04;;;;;;;2.67;1.87;;;1.30;91.70;;;;;;5052261;28;20180;-69
2023/01/28 09:37:30;;;;;;;0.30;0.30;;;1.20;91.70;;;;;;5054323;28;20172;-68
2023/01/28 09:39:55;;;;;;;1.60;1.47;;;0.70;91.60;;;;;;5053942;28;20318;-67
2023/01/28 09:42:46;;;;;;;0.47;0.47;;;0.70;91.90;;;;;;5053550;28;20533;-68
2023/01/28 09:45:33;;;;;;;0.73;0.73;;;0.90;91.60;;;;;;5053526;28;20497;-68
2023/01/28 09:48:02;;;;;;;0.30;0.30;;;1.10;91.20;;;;;;5054127;28;20183;-69
2023/01/28 09:50:40;;;;;;;0.40;0.40;;;1.20;91.50;;;;;;5053514;28;20221;-69
2023/01/28 09:53:18;;;;;;;0.40;0.40;;;1.20;91.40;;;;;;5053759;28;20178;-69
2023/01/28 09:55:53;;;;;;;0.38;0.38;;;0.90;91.20;;;;;;5053859;28;20635;-69
2023/01/28 09:58:19;;;;;;;0.30;0.30;;;0.60;91.60;;;;;;5054129;28;20166;-69
2023/01/28 10:00:57;;;;;;;0.30;0.30;;;0.30;92.40;;;;;;5053466;28;20623;-68
2023/01/28 10:03:50;;;;;;;0.30;0.30;;;0.00;92.70;;;;;;5053537;28;20651;-69
2023/01/28 10:06:54;;;;;;;0.30;0.30;;;0.00;93.20;;;;;;5053357;28;20245;-68
2023/01/28 10:09:41;;;;;;;0.70;0.70;;;-0.10;93.20;;;;;;5051908;28;20210;-69
2023/01/28 10:12:25;;;;;;;0.40;0.40;;;0.00;93.40;;;;;;5053401;28;20162;-68
2023/01/28 10:15:24;;;;;;;0.30;0.30;;;0.30;93.40;;;;;;5051988;28;20612;-68
2023/01/28 10:17:53;;;;;;;0.30;0.30;;;0.40;93.70;;;;;;5053168;28;20170;-69
2023/01/28 10:20:31;;;;;;;0.50;0.50;;;0.30;93.60;;;;;;5053362;28;20263;-70
2023/01/28 10:23:05;;;;;;;0.30;0.30;;;0.30;93.50;;;;;;5053020;28;20175;-70
2023/01/28 10:25:32;;;;;;;0.30;0.30;;;0.60;93.40;;;;;;5053769;28;20171;-70
2023/01/28 10:28:00;;;;;;;0.30;0.30;;;0.70;93.00;;;;;;5053137;28;20274;-70
2023/01/28 10:30:30;;;;;;;0.40;0.40;;;0.50;93.20;;;;;;5052996;28;20204;-71
2023/01/28 10:33:03;;;;;;;0.30;0.30;;;0.40;93.10;;;;;;5053187;28;20256;-70
2023/01/28 10:35:34;;;;;;;0.40;0.40;;;0.60;93.40;;;;;;5053407;28;20175;-68
2023/01/28 10:38:05;;;;;;;0.30;0.30;;;0.60;93.60;;;;;;5053627;28;20163;-69
2023/01/28 10:40:31;;;;;;;0.40;0.40;;;0.90;93.40;;;;;;5053280;28;20231;-70
2023/01/28 10:42:56;;;;;;;0.77;0.77;;;1.40;92.50;;;;;;5052749;28;20169;-69
2023/01/28 10:45:35;;;;;;;0.87;0.87;;;2.40;92.20;;;;;;5053922;28;20283;-69
2023/01/28 10:48:13;;;;;;;0.40;0.40;;;3.30;89.30;;;;;;5057170;28;20166;-69
2023/01/28 10:50:51;;;;;;;1.30;0.75;;;4.00;85.40;;;;;;5055635;28;20216;-69
2023/01/28 10:53:16;;;;;;;0.63;0.63;;;4.50;83.80;;;;;;5056723;28;20163;-70
2023/01/28 10:55:59;;;;;;;0.63;0.63;;;5.00;82.20;;;;;;5056813;28;20178;-68
2023/01/28 10:58:27;;;;;;;0.70;0.70;;;5.10;80.20;;;;;;5056857;28;20174;-71
2023/01/28 11:01:00;;;;;;;0.40;0.40;;;5.00;79.90;;;;;;5056766;28;20187;-71
2023/01/28 11:03:26;;;;;;;0.55;0.55;;;5.10;79.50;;;;;;5055548;28;20197;-71
2023/01/28 11:05:53;;;;;;;1.45;0.82;;;4.60;79.60;;;;;;5056745;28;20197;-71
2023/01/28 11:08:24;;;;;;;0.93;0.93;;;4.40;80.30;;;;;;5056227;28;20260;-70
2023/01/28 11:10:50;;;;;;;0.45;0.45;;;3.70;81.50;;;;;;5055920;28;20193;-71
2023/01/28 11:13:19;;;;;;;0.40;0.40;;;3.70;82.40;;;;;;5054986;28;20644;-69
2023/01/28 11:16:00;;;;;;;0.50;0.50;;;3.90;84.00;;;;;;5056331;28;20173;-69
2023/01/28 11:18:39;;;;;;;1.55;0.88;;;4.40;80.70;;;;;;5056446;28;20185;-69
2023/01/28 11:21:20;;;;;;;1.02;1.02;;;3.90;80.70;;;;;;5056313;28;20194;-70
2023/01/28 11:23:50;;;;;;;0.40;0.40;;;4.30;81.10;;;;;;5056219;28;20543;-68
2023/01/28 11:26:20;;;;;;;0.40;0.40;;;3.80;79.60;;;;;;5056205;28;20178;-69
2023/01/28 11:28:46;;;;;;;0.70;0.70;;;3.50;80.70;;;;;;5056160;28;20178;-69
2023/01/28 11:31:15;;;;;;;0.40;0.40;;;3.50;81.20;;;;;;5056046;28;20198;-70
2023/01/28 11:33:49;;;;;;;2.13;0.65;;;3.60;81.80;;;;;;5056030;28;20532;-70
2023/01/28 11:36:18;;;;;;;0.40;0.40;;;3.60;81.70;;;;;;5056250;28;20197;-68
2023/01/28 11:39:24;;;;;;;0.30;0.30;;;3.70;82.40;;;;;;5056028;28;20249;-69
2023/01/28 11:41:51;;;;;;;0.40;0.40;;;3.90;81.30;;;;;;5055756;28;20178;-70
2023/01/28 11:44:23;;;;;;;1.40;1.40;;;4.30;80.90;;;;;;5056086;28;20523;-70
2023/01/28 11:47:15;;;;;;;0.95;0.95;;;4.50;79.80;;;;;;5055809;28;20166;-71
2023/01/28 11:49:49;;;;;;;0.40;0.40;;;4.50;78.70;;;;;;5055518;28;20201;-68
2023/01/28 11:52:48;;;;;;;0.38;0.38;;;4.60;77.60;;;;;;5055620;28;20197;-69
2023/01/28 11:55:35;;;;;;;0.95;0.95;;;4.50;76.70;;;;;;5055914;28;20162;-70
2023/01/28 11:58:10;;;;;;;0.60;0.60;;;4.40;77.00;;;;;;5055995;28;20196;-69
2023/01/28 12:00:44;;;;;;;0.40;0.40;;;3.80;76.90;;;;;;5054848;28;20276;-71
2023/01/28 12:03:54;;;;;;;0.50;0.50;;;3.20;79.20;;;;;;5054935;28;20185;-69
2023/01/28 12:06:40;;;;;;;0.30;0.30;;;3.00;81.00;;;;;;5055643;28;20173;-71
2023/01/28 12:09:21;;;;;;;0.40;0.40;;;2.10;91.50;;;;;;5054572;28;20268;-70
2023/01/28 12:12:10;;;;;;;1.67;1.67;;;2.10;84.70;;;;;;5055596;28;20636;-70
2023/01/28 12:14:54;;;;;;;0.40;0.40;;;1.90;85.20;;;;;;5055761;28;20192;-71
2023/01/28 12:17:44;;;;;;;0.40;0.40;;;1.80;87.20;;;;;;5054109;28;20176;-71
2023/01/28 12:20:27;;;;;;;1.92;1.38;;;1.70;87.40;;;;;;5055001;28;20284;-69
2023/01/28 12:23:11;;;;;;;0.40;0.40;;;1.80;88.40;;;;;;5055278;28;20224;-71
2023/01/28 12:26:02;;;;;;;0.70;0.70;;;1.90;88.40;;;;;;5055657;28;20177;-70
2023/01/28 12:29:03;;;;;;;0.30;0.30;;;1.80;88.40;;;;;;5055155;28;20179;-69
2023/01/28 12:31:46;;;;;;;0.40;0.40;;;1.40;88.80;;;;;;5054917;28;20192;-70
2023/01/28 12:34:23;;;;;;;0.47;0.47;;;1.20;90.50;;;;;;5055522;28;20176;-70
2023/01/28 12:36:51;;;;;;;0.32;0.32;;;1.00;90.50;;;;;;5055533;28;20205;-71
2023/01/28 12:39:42;;;;;;;0.30;0.30;;;1.10;90.70;;;;;;5054889;28;20188;-71
2023/01/28 12:42:22;;;;;;;0.30;0.30;;;1.10;91.20;;;;;;5054935;28;20183;-71
2023/01/28 12:44:53;;;;;;;0.50;0.50;;;1.00;91.20;;;;;;5054975;28;20583;-68
2023/01/28 12:47:45;;;;;;;0.30;0.30;;;1.10;91.20;;;;;;5054891;28;20176;-71
2023/01/28 12:50:25;;;;;;;0.40;0.40;;;1.10;91.60;;;;;;5054781;28;20206;-71
2023/01/28 12:52:57;;;;;;;0.60;0.60;;;1.00;92.10;;;;;;5054653;28;20631;-70
2023/01/28 12:55:37;;;;;;;0.40;0.40;;;1.20;91.70;;;;;;5055236;28;20169;-69
2023/01/28 12:58:06;;;;;;;0.40;0.40;;;1.40;91.50;;;;;;5054550;28;20173;-69
2023/01/28 13:00:40;;;;;;;0.70;0.50;;;1.50;91.10;;;;;;5054676;28;20193;-70
2023/01/28 13:03:34;;;;;;;0.40;0.40;;;1.20;91.30;;;;;;5054478;28;20263;-71
2023/01/28 13:06:05;;;;;;;0.30;0.30;;;1.20;91.50;;;;;;5054676;28;20177;-70
2023/01/28 13:08:31;;;;;;;0.95;0.95;;;1.40;91.50;;;;;;5054125;28;20267;-71
2023/01/28 13:11:00;;;;;;;1.02;1.02;;;1.50;91.30;;;;;;5054424;28;20673;-68
2023/01/28 13:13:35;;;;;;;0.40;0.40;;;1.40;91.00;;;;;;5054506;28;20184;-71
2023/01/28 13:16:02;;;;;;;0.50;0.50;;;1.00;91.60;;;;;;5054395;28;20196;-69
2023/01/28 13:18:40;;;;;;;0.50;0.50;;;0.90;91.70;;;;;;5054524;28;20187;-71
2023/01/28 13:21:25;;;;;;;0.98;0.98;;;0.70;91.80;;;;;;5054242;28;20193;-70
2023/01/28 13:24:18;;;;;;;0.43;0.43;;;0.60;92.30;;;;;;5054303;28;20168;-69
2023/01/28 13:27:11;;;;;;;0.30;0.30;;;0.70;92.60;;;;;;5054253;28;20175;-70
2023/01/28 13:29:37;;;;;;;0.45;0.45;;;1.20;93.00;;;;;;5050845;28;20213;-69
2023/01/28 13:32:28;;;;;;;0.60;0.57;;;0.90;92.90;;;;;;5053994;28;20185;-70
2023/01/28 13:35:03;;;;;;;0.40;0.40;;;0.90;92.60;;;;;;5053743;28;20175;-67
2023/01/28 13:37:37;;;;;;;0.30;0.30;;;0.80;92.50;;;;;;5054485;28;20173;-71
2023/01/28 13:40:05;;;;;;;0.60;0.60;;;0.90;92.80;;;;;;5053809;28;20282;-70
2023/01/28 13:42:31;;;;;;;0.65;0.65;;;1.10;93.40;;;;;;5053518;28;20242;-71